createdAt,value
2024-02-02T00:00:42.688Z,15.50
2024-02-02T00:03:12.389Z,15.43
2024-02-02T00:05:41.762Z,19.30
2024-02-02T00:08:09.958Z,17.88
2024-02-02T00:10:38.193Z,17.02
2024-02-02T00:13:06.603Z,21.67
2024-02-02T00:15:34.893Z,21.90
2024-02-02T00:18:03.806Z,19.80
2024-02-02T00:20:33.402Z,21.42
2024-02-02T00:23:01.541Z,19.40
2024-02-02T00:25:29.793Z,20.47
2024-02-02T00:27:57.964Z,21.52
2024-02-02T00:30:26.223Z,18.02
2024-02-02T00:32:54.566Z,19.27
2024-02-02T00:35:22.735Z,19.63
2024-02-02T00:37:52.238Z,24.27
2024-02-02T00:40:21.169Z,22.40
2024-02-02T00:42:49.521Z,16.85
2024-02-02T00:45:18.255Z,17.70
2024-02-02T00:47:46.732Z,26.33
2024-02-02T00:50:14.932Z,17.20
2024-02-02T00:52:43.170Z,20.88
2024-02-02T00:55:14.721Z,19.15
2024-02-02T00:57:42.969Z,26.10
2024-02-02T01:00:12.621Z,23.63
2024-02-02T01:02:41.921Z,25.55
2024-02-02T01:05:19.324Z,24.67
2024-02-02T01:07:48.818Z,18.60
2024-02-02T01:10:19.017Z,23.47
2024-02-02T01:12:48.070Z,24.80
2024-02-02T01:15:17.785Z,23.40
2024-02-02T01:17:46.916Z,22.63
2024-02-02T01:20:15.853Z,21.30
2024-02-02T01:22:44.192Z,24.13
2024-02-02T01:25:13.394Z,23.10
2024-02-02T01:27:43.066Z,22.73
2024-02-02T01:30:17.752Z,24.00
2024-02-02T01:32:45.998Z,26.92
2024-02-02T01:35:14.613Z,20.17
2024-02-02T01:37:42.740Z,20.52
2024-02-02T01:40:14.586Z,21.02
2024-02-02T01:42:44.154Z,20.63
2024-02-02T01:45:14.439Z,20.98
2024-02-02T01:47:42.738Z,20.00
2024-02-02T01:50:15.785Z,18.75
2024-02-02T01:52:43.964Z,22.20
2024-02-02T01:55:16.057Z,20.85
2024-02-02T01:57:45.780Z,22.85
2024-02-02T02:00:18.497Z,22.23
2024-02-02T02:02:46.698Z,20.35
2024-02-02T02:05:15.205Z,17.07
2024-02-02T02:07:45.520Z,27.17
2024-02-02T02:10:15.688Z,24.75
2024-02-02T02:12:45.247Z,18.52
2024-02-02T02:15:13.795Z,21.70
2024-02-02T02:17:41.995Z,22.50
2024-02-02T02:20:13.126Z,24.60
2024-02-02T02:22:43.040Z,23.73
2024-02-02T02:25:12.193Z,18.08
2024-02-02T02:27:40.418Z,24.35
2024-02-02T02:30:10.150Z,17.75
2024-02-02T02:32:38.720Z,20.23
2024-02-02T02:35:09.585Z,23.35
2024-02-02T02:37:37.880Z,19.73
2024-02-02T02:40:11.131Z,19.77
2024-02-02T02:42:41.145Z,20.88
2024-02-02T02:45:14.184Z,18.35
2024-02-02T02:47:43.217Z,23.75
2024-02-02T02:50:12.357Z,22.15
2024-02-02T02:52:40.593Z,19.23
2024-02-02T02:55:10.507Z,22.00
2024-02-02T02:57:38.738Z,19.97
2024-02-02T03:00:10.688Z,17.70
2024-02-02T03:02:39.020Z,18.35
2024-02-02T03:05:10.160Z,18.90
2024-02-02T03:07:39.369Z,19.33
2024-02-02T03:10:08.078Z,18.45
2024-02-02T03:12:38.926Z,15.30
2024-02-02T03:15:08.013Z,18.67
2024-02-02T03:17:36.209Z,20.20
2024-02-02T03:20:06.591Z,19.08
2024-02-02T03:22:35.064Z,19.53
2024-02-02T03:25:03.533Z,20.10
2024-02-02T03:27:32.127Z,19.53
2024-02-02T03:30:01.868Z,16.75
2024-02-02T03:32:30.297Z,19.15
2024-02-02T03:34:58.422Z,15.52
2024-02-02T03:37:26.514Z,22.67
2024-02-02T03:39:54.672Z,19.30
2024-02-02T03:42:22.839Z,20.85
2024-02-02T03:44:51.048Z,21.55
2024-02-02T03:47:22.813Z,17.02
2024-02-02T03:49:51.045Z,17.63
2024-02-02T03:52:24.383Z,19.97
2024-02-02T03:54:52.976Z,22.13
2024-02-02T03:57:21.274Z,20.20
2024-02-02T03:59:49.617Z,17.08
2024-02-02T04:02:18.217Z,19.02
2024-02-02T04:04:47.802Z,21.03
2024-02-02T04:07:15.929Z,21.00
2024-02-02T04:09:44.118Z,22.85
2024-02-02T04:12:12.292Z,17.83
2024-02-02T04:14:41.685Z,21.23
2024-02-02T04:17:09.871Z,18.50
2024-02-02T04:19:38.100Z,23.23
2024-02-02T04:22:07.741Z,21.55
2024-02-02T04:24:35.958Z,21.73
2024-02-02T04:27:04.327Z,23.48
2024-02-02T04:29:32.512Z,23.47
2024-02-02T04:32:00.628Z,16.42
2024-02-02T04:34:29.001Z,19.23
2024-02-02T04:36:57.445Z,18.37
2024-02-02T04:39:27.107Z,20.55
2024-02-02T04:41:55.410Z,17.77
2024-02-02T04:44:23.735Z,18.38
2024-02-02T04:46:51.955Z,18.67
2024-02-02T04:49:20.213Z,21.85
2024-02-02T04:51:48.463Z,24.13
2024-02-02T04:54:16.680Z,22.67
2024-02-02T04:56:46.290Z,24.63
2024-02-02T04:59:14.419Z,19.50
2024-02-02T05:01:42.591Z,19.80
2024-02-02T05:04:10.787Z,24.17
2024-02-02T05:06:39.091Z,20.48
2024-02-02T05:09:08.802Z,18.50
2024-02-02T05:11:37.062Z,18.75
2024-02-02T05:14:06.663Z,20.27
2024-02-02T05:16:34.927Z,19.70
2024-02-02T05:19:03.306Z,21.17
2024-02-02T05:21:31.929Z,20.52
2024-02-02T05:24:09.835Z,18.17
2024-02-02T05:26:48.247Z,21.77
2024-02-02T05:29:17.815Z,25.67
2024-02-02T05:31:46.041Z,23.88
2024-02-02T05:34:14.692Z,21.13
2024-02-02T05:36:42.984Z,23.23
2024-02-02T05:39:11.426Z,22.35
2024-02-02T05:41:39.628Z,25.20
2024-02-02T05:44:07.765Z,22.65
2024-02-02T05:46:38.184Z,20.60
2024-02-02T05:49:06.767Z,23.30
2024-02-02T05:51:35.127Z,23.10
2024-02-02T05:54:03.431Z,27.83
2024-02-02T05:56:31.614Z,22.35
2024-02-02T05:58:59.827Z,25.15
2024-02-02T06:01:28.105Z,20.15
2024-02-02T06:03:57.954Z,21.83
2024-02-02T06:06:26.273Z,22.73
2024-02-02T06:08:56.979Z,21.10
2024-02-02T06:11:27.074Z,22.77
2024-02-02T06:13:57.384Z,21.42
2024-02-02T06:16:27.083Z,19.95
2024-02-02T06:18:56.534Z,23.67
2024-02-02T06:21:26.316Z,22.38
2024-02-02T06:23:54.514Z,25.55
2024-02-02T06:26:22.767Z,25.15
2024-02-02T06:28:51.009Z,21.00
2024-02-02T06:31:21.219Z,21.83
2024-02-02T06:33:49.521Z,23.05
2024-02-02T06:36:17.890Z,19.70
2024-02-02T06:38:47.613Z,21.58
2024-02-02T06:41:15.852Z,21.83
2024-02-02T06:43:44.075Z,16.70
2024-02-02T06:46:12.221Z,18.13
2024-02-02T06:48:40.432Z,24.88
2024-02-02T06:51:10.009Z,20.03
2024-02-02T06:53:38.631Z,23.90
2024-02-02T06:56:11.178Z,20.13
2024-02-02T06:58:41.980Z,25.33
2024-02-02T07:01:10.388Z,23.95
2024-02-02T07:03:39.110Z,21.10
2024-02-02T07:06:08.577Z,20.67
2024-02-02T07:08:36.837Z,20.07
2024-02-02T07:11:07.820Z,19.85
2024-02-02T07:13:46.631Z,19.90
2024-02-02T07:16:16.727Z,20.43
2024-02-02T07:18:45.188Z,21.48
2024-02-02T07:21:14.898Z,20.48
2024-02-02T07:23:47.832Z,26.50
2024-02-02T07:26:27.777Z,23.77
2024-02-02T07:28:57.389Z,19.05
2024-02-02T07:31:37.259Z,19.83
2024-02-02T07:34:18.632Z,23.42
2024-02-02T07:36:46.872Z,19.98
2024-02-02T07:39:23.834Z,24.08
2024-02-02T07:41:52.100Z,21.20
2024-02-02T07:44:21.704Z,23.00
2024-02-02T07:46:49.873Z,22.10
2024-02-02T07:49:18.131Z,20.25
2024-02-02T07:51:46.415Z,21.25
2024-02-02T07:54:14.944Z,17.80
2024-02-02T07:56:45.134Z,20.77
2024-02-02T07:59:13.354Z,20.83
2024-02-02T08:01:42.936Z,22.98
2024-02-02T08:04:11.252Z,19.02
2024-02-02T08:06:39.557Z,26.63
2024-02-02T08:09:10.317Z,26.20
2024-02-02T08:11:38.882Z,19.90
2024-02-02T08:14:07.160Z,18.67
2024-02-02T08:16:35.350Z,18.90
2024-02-02T08:19:04.957Z,20.15
2024-02-02T08:21:33.204Z,17.83
2024-02-02T08:24:02.043Z,17.95
2024-02-02T08:26:30.240Z,20.53
2024-02-02T08:28:58.453Z,18.67
2024-02-02T08:31:26.679Z,23.10
2024-02-02T08:33:54.990Z,19.95
2024-02-02T08:36:24.683Z,14.90
2024-02-02T08:38:53.011Z,19.83
2024-02-02T08:41:21.370Z,20.33
2024-02-02T08:43:50.532Z,17.40
2024-02-02T08:46:22.811Z,19.45
2024-02-02T08:48:52.218Z,21.23
2024-02-02T08:51:48.338Z,20.48
2024-02-02T08:54:38.307Z,23.25
2024-02-02T08:57:32.554Z,21.77
2024-02-02T09:00:06.731Z,19.17
2024-02-02T09:02:53.732Z,19.92
2024-02-02T09:05:24.091Z,17.42
2024-02-02T09:07:54.526Z,21.40
2024-02-02T09:10:58.841Z,19.02
2024-02-02T09:13:28.749Z,22.50
2024-02-02T09:15:56.966Z,16.92
2024-02-02T09:18:34.780Z,22.88
2024-02-02T09:21:03.673Z,19.88
2024-02-02T09:23:35.057Z,19.58
2024-02-02T09:26:12.294Z,21.58
2024-02-02T09:28:44.735Z,23.27
2024-02-02T09:31:13.760Z,21.97
2024-02-02T09:33:49.709Z,23.10
2024-02-02T09:36:18.371Z,22.77
2024-02-02T09:39:01.844Z,23.40
2024-02-02T09:41:45.446Z,23.52
2024-02-02T09:44:26.407Z,27.55
2024-02-02T09:47:01.479Z,21.45
2024-02-02T09:49:50.826Z,20.40
2024-02-02T09:52:28.177Z,23.73
2024-02-02T09:55:05.089Z,20.02
2024-02-02T09:57:39.804Z,23.15
2024-02-02T10:00:12.359Z,19.73
2024-02-02T10:02:56.192Z,21.40
2024-02-02T10:05:30.766Z,21.08
2024-02-02T10:08:10.696Z,19.08
2024-02-02T10:10:55.678Z,22.48
2024-02-02T10:13:35.324Z,18.27
2024-02-02T10:16:19.125Z,19.10
2024-02-02T10:19:27.551Z,22.40
2024-02-02T10:22:08.108Z,24.77
2024-02-02T10:24:48.813Z,22.63
2024-02-02T10:27:31.271Z,23.35
2024-02-02T10:30:07.063Z,26.67
2024-02-02T10:32:59.493Z,20.33
2024-02-02T10:35:33.598Z,20.15
2024-02-02T10:38:14.199Z,24.93
2024-02-02T10:40:44.491Z,22.33
2024-02-02T10:43:30.093Z,21.33
2024-02-02T10:46:13.378Z,18.48
2024-02-02T10:48:56.844Z,22.33
2024-02-02T10:51:30.643Z,25.92
2024-02-02T10:54:06.336Z,23.63
2024-02-02T10:56:40.216Z,25.42
2024-02-02T10:59:16.530Z,23.23
2024-02-02T11:01:51.834Z,26.13
2024-02-02T11:04:30.037Z,25.80
2024-02-02T11:07:04.864Z,25.33
2024-02-02T11:09:36.967Z,22.58
2024-02-02T11:12:12.080Z,20.15
2024-02-02T11:14:45.278Z,23.02
2024-02-02T11:17:18.996Z,18.13
2024-02-02T11:20:09.658Z,22.15
2024-02-02T11:22:42.126Z,19.95
2024-02-02T11:25:17.069Z,21.40
2024-02-02T11:27:51.111Z,20.52
2024-02-02T11:30:32.323Z,20.73
2024-02-02T11:33:21.330Z,18.60
2024-02-02T11:36:00.599Z,23.10
2024-02-02T11:38:39.771Z,16.80
2024-02-02T11:41:13.594Z,15.80
2024-02-02T11:43:42.464Z,22.85
2024-02-02T11:46:12.427Z,17.23
2024-02-02T11:48:41.883Z,15.73
2024-02-02T11:51:11.977Z,15.13
2024-02-02T11:53:43.150Z,16.83
2024-02-02T11:56:13.171Z,16.95
2024-02-02T11:58:44.290Z,18.52
2024-02-02T12:01:34.012Z,15.45
2024-02-02T12:04:23.567Z,18.38
2024-02-02T12:07:12.545Z,17.85
2024-02-02T12:09:45.005Z,20.38
2024-02-02T12:12:17.242Z,19.20
2024-02-02T12:14:50.254Z,14.87
2024-02-02T12:17:20.007Z,15.75
2024-02-02T12:19:48.452Z,16.77
2024-02-02T12:22:16.773Z,15.23
2024-02-02T12:24:45.056Z,17.87
2024-02-02T12:27:13.354Z,18.58
2024-02-02T12:29:41.779Z,17.58
2024-02-02T12:32:12.678Z,14.60
2024-02-02T12:34:42.959Z,19.70
2024-02-02T12:37:11.477Z,16.88
2024-02-02T12:39:39.803Z,15.40
2024-02-02T12:42:08.562Z,17.23
2024-02-02T12:44:36.883Z,17.30
2024-02-02T12:47:07.906Z,18.90
2024-02-02T12:49:38.357Z,21.38
2024-02-02T12:52:08.497Z,18.90
2024-02-02T12:54:37.022Z,23.10
2024-02-02T12:57:06.376Z,18.75
2024-02-02T12:59:34.660Z,17.45
2024-02-02T13:02:02.881Z,20.55
2024-02-02T13:04:32.285Z,17.92
2024-02-02T13:07:01.292Z,20.95
2024-02-02T13:09:33.792Z,14.52
2024-02-02T13:12:02.997Z,23.37
2024-02-02T13:14:33.668Z,20.25
2024-02-02T13:17:07.371Z,18.35
2024-02-02T13:19:39.779Z,15.45
2024-02-02T13:22:19.015Z,18.50
2024-02-02T13:24:50.537Z,17.65
2024-02-02T13:27:20.037Z,19.27
2024-02-02T13:29:50.291Z,20.95
2024-02-02T13:32:19.343Z,15.85
2024-02-02T13:34:47.670Z,14.30
2024-02-02T13:37:30.432Z,17.02
2024-02-02T13:40:03.071Z,15.55
2024-02-02T13:42:36.562Z,15.30
2024-02-02T13:45:16.626Z,15.40
2024-02-02T13:47:46.000Z,16.40
2024-02-02T13:50:20.492Z,16.02
2024-02-02T13:52:51.227Z,12.95
2024-02-02T13:55:21.963Z,14.75
2024-02-02T13:57:50.585Z,19.00
2024-02-02T14:00:20.484Z,16.60
2024-02-02T14:02:48.845Z,12.45
2024-02-02T14:05:17.247Z,16.10
2024-02-02T14:07:56.212Z,15.77
2024-02-02T14:10:28.657Z,17.65
2024-02-02T14:12:56.892Z,15.13
2024-02-02T14:15:25.144Z,12.93
2024-02-02T14:18:01.893Z,14.18
2024-02-02T14:20:30.291Z,14.38
2024-02-02T14:22:58.521Z,13.50
2024-02-02T14:25:30.002Z,12.90
2024-02-02T14:27:58.170Z,17.08
2024-02-02T14:30:26.443Z,13.80
2024-02-02T14:33:08.481Z,13.60
2024-02-02T14:35:42.821Z,13.15
2024-02-02T14:38:13.971Z,16.77
2024-02-02T14:40:44.056Z,14.73
2024-02-02T14:43:12.336Z,16.23
2024-02-02T14:45:41.530Z,12.50
2024-02-02T14:48:10.536Z,14.05
2024-02-02T14:50:39.950Z,15.07
2024-02-02T14:53:08.179Z,15.47
2024-02-02T14:55:36.358Z,15.45
2024-02-02T14:58:06.587Z,12.65
2024-02-02T15:00:42.085Z,18.50
2024-02-02T15:03:10.379Z,14.68
2024-02-02T15:05:38.633Z,14.13
2024-02-02T15:08:07.891Z,12.93
2024-02-02T15:10:36.189Z,20.00
2024-02-02T15:13:06.489Z,16.42
2024-02-02T15:15:34.730Z,12.70
2024-02-02T15:18:03.041Z,14.27
2024-02-02T15:20:31.296Z,13.15
2024-02-02T15:22:59.527Z,14.95
2024-02-02T15:25:27.732Z,14.80
2024-02-02T15:27:56.043Z,13.55
2024-02-02T15:30:25.777Z,14.20
2024-02-02T15:32:54.033Z,15.38
2024-02-02T15:35:22.429Z,13.48
2024-02-02T15:37:50.688Z,12.73
2024-02-02T15:40:21.659Z,14.55
2024-02-02T15:42:51.902Z,15.77
2024-02-02T15:45:20.374Z,13.43
2024-02-02T15:47:52.040Z,13.93
2024-02-02T15:50:20.625Z,14.63
2024-02-02T15:52:48.943Z,12.38
2024-02-02T15:55:17.207Z,13.32
2024-02-02T15:57:50.211Z,14.32
2024-02-02T16:00:19.383Z,13.98
2024-02-02T16:02:49.575Z,18.83
2024-02-02T16:05:18.582Z,16.40
2024-02-02T16:07:47.074Z,16.08
2024-02-02T16:10:18.748Z,18.75
2024-02-02T16:12:47.072Z,18.02
2024-02-02T16:15:16.895Z,15.90
2024-02-02T16:17:45.365Z,16.95
2024-02-02T16:20:16.106Z,16.88
2024-02-02T16:22:44.320Z,15.23
2024-02-02T16:25:15.605Z,16.55
2024-02-02T16:27:44.296Z,17.77
2024-02-02T16:30:15.270Z,17.60
2024-02-02T16:32:43.628Z,18.52
2024-02-02T16:35:15.534Z,17.75
2024-02-02T16:37:44.107Z,17.00
2024-02-02T16:40:13.044Z,17.85
2024-02-02T16:42:41.901Z,15.93
2024-02-02T16:45:11.277Z,19.38
2024-02-02T16:47:39.678Z,17.88
2024-02-02T16:50:11.992Z,18.58
2024-02-02T16:52:43.428Z,19.40
2024-02-02T16:55:13.759Z,17.50
2024-02-02T16:57:42.008Z,19.40
2024-02-02T17:00:12.380Z,23.92
2024-02-02T17:02:40.804Z,18.55
2024-02-02T17:05:09.388Z,22.95
2024-02-02T17:07:37.645Z,21.23
2024-02-02T17:10:11.067Z,20.23
2024-02-02T17:12:39.417Z,19.83
2024-02-02T17:15:10.747Z,22.00
2024-02-02T17:17:41.797Z,23.17
2024-02-02T17:20:12.392Z,22.63
2024-02-02T17:22:44.410Z,21.30
2024-02-02T17:25:15.687Z,27.38
2024-02-02T17:27:44.154Z,23.63
2024-02-02T17:30:22.141Z,22.60
2024-02-02T17:32:50.512Z,21.13
2024-02-02T17:35:19.074Z,19.35
2024-02-02T17:37:47.338Z,19.67
2024-02-02T17:40:17.245Z,20.25
2024-02-02T17:42:45.978Z,19.25
2024-02-02T17:45:15.776Z,18.83
2024-02-02T17:47:44.018Z,19.88
2024-02-02T17:50:17.494Z,22.67
2024-02-02T17:52:45.890Z,22.23
2024-02-02T17:55:16.114Z,18.77
2024-02-02T17:57:44.363Z,18.52
2024-02-02T18:00:21.024Z,19.90
2024-02-02T18:02:49.358Z,19.45
2024-02-02T18:05:17.978Z,19.13
2024-02-02T18:07:48.200Z,20.05
2024-02-02T18:10:18.370Z,18.88
2024-02-02T18:12:49.801Z,17.15
2024-02-02T18:15:18.493Z,23.80
2024-02-02T18:17:46.914Z,20.15
2024-02-02T18:20:16.338Z,20.65
2024-02-02T18:22:44.594Z,21.02
2024-02-02T18:25:13.043Z,22.40
2024-02-02T18:27:42.688Z,19.38
2024-02-02T18:30:14.048Z,26.25
2024-02-02T18:32:42.831Z,26.03
2024-02-02T18:35:13.319Z,27.13
2024-02-02T18:37:41.501Z,24.65
2024-02-02T18:40:11.317Z,23.65
2024-02-02T18:42:40.240Z,24.73
2024-02-02T18:45:16.055Z,24.48
2024-02-02T18:47:44.361Z,26.50
2024-02-02T18:50:13.062Z,24.35
2024-02-02T18:52:41.257Z,26.80
2024-02-02T18:55:10.241Z,27.73
2024-02-02T18:57:38.500Z,26.42
2024-02-02T19:00:07.717Z,27.40
2024-02-02T19:02:37.431Z,27.63
2024-02-02T19:05:06.615Z,24.55
2024-02-02T19:07:35.037Z,24.90
2024-02-02T19:10:03.218Z,27.80
2024-02-02T19:12:31.989Z,26.20
2024-02-02T19:15:00.529Z,23.77
2024-02-02T19:17:28.867Z,28.25
2024-02-02T19:19:58.638Z,26.50
2024-02-02T19:22:26.842Z,22.10
2024-02-02T19:24:55.217Z,24.73
2024-02-02T19:27:23.518Z,28.17
2024-02-02T19:29:51.837Z,26.27
2024-02-02T19:32:20.021Z,24.45
2024-02-02T19:34:48.399Z,25.58
2024-02-02T19:37:18.034Z,22.85
2024-02-02T19:39:47.238Z,24.05
2024-02-02T19:42:15.594Z,24.55
2024-02-02T19:44:44.142Z,26.58
2024-02-02T19:47:14.252Z,25.42
2024-02-02T19:49:42.605Z,24.13
2024-02-02T19:52:10.940Z,27.70
2024-02-02T19:54:40.588Z,25.15
2024-02-02T19:57:08.860Z,25.35
2024-02-02T19:59:37.216Z,29.75
2024-02-02T20:02:05.772Z,24.45
2024-02-02T20:04:34.064Z,26.80
2024-02-02T20:07:02.498Z,27.70
2024-02-02T20:09:30.850Z,31.88
2024-02-02T20:12:00.485Z,25.17
2024-02-02T20:14:28.719Z,28.60
2024-02-02T20:16:56.878Z,28.92
2024-02-02T20:19:26.292Z,29.73
2024-02-02T20:21:54.671Z,25.35
2024-02-02T20:24:22.892Z,23.45
2024-02-02T20:26:51.047Z,24.40
2024-02-02T20:29:20.689Z,25.20
2024-02-02T20:31:51.510Z,29.67
2024-02-02T20:34:19.816Z,22.63
2024-02-02T20:36:48.126Z,22.45
2024-02-02T20:39:16.419Z,25.92
2024-02-02T20:41:45.223Z,23.70
2024-02-02T20:44:13.446Z,17.25
2024-02-02T20:46:44.651Z,22.30
2024-02-02T20:49:15.780Z,22.65
2024-02-02T20:51:44.408Z,20.37
2024-02-02T20:54:14.122Z,18.20
2024-02-02T20:56:42.907Z,21.08
2024-02-02T20:59:11.304Z,23.60
2024-02-02T21:01:39.569Z,22.87
2024-02-02T21:04:09.274Z,20.88
2024-02-02T21:06:43.877Z,20.40
2024-02-02T21:09:12.591Z,21.20
2024-02-02T21:11:41.186Z,20.15
2024-02-02T21:14:09.518Z,19.45
2024-02-02T21:16:38.328Z,18.55
2024-02-02T21:19:09.592Z,20.33
2024-02-02T21:21:38.101Z,18.65
2024-02-02T21:24:07.082Z,18.27
2024-02-02T21:26:35.400Z,15.52
2024-02-02T21:29:03.822Z,18.00
2024-02-02T21:31:32.320Z,14.70
2024-02-02T21:34:00.843Z,13.30
2024-02-02T21:36:30.601Z,14.95
2024-02-02T21:38:59.152Z,10.95
2024-02-02T21:41:27.687Z,14.60
2024-02-02T21:43:56.054Z,11.85
2024-02-02T21:46:24.825Z,13.52
2024-02-02T21:48:53.289Z,13.32
2024-02-02T21:51:21.899Z,14.60
2024-02-02T21:53:51.757Z,14.18
2024-02-02T21:56:20.128Z,13.57
2024-02-02T21:58:48.426Z,13.70
2024-02-02T22:01:16.869Z,10.95
2024-02-02T22:03:45.253Z,15.73
2024-02-02T22:06:15.285Z,14.85
2024-02-02T22:08:43.644Z,13.70
2024-02-02T22:11:14.469Z,9.13
2024-02-02T22:13:43.275Z,10.07
2024-02-02T22:16:12.177Z,14.23
2024-02-02T22:18:40.667Z,9.80
2024-02-02T22:21:09.869Z,8.13
2024-02-02T22:23:38.481Z,12.82
2024-02-02T22:26:07.142Z,11.57
2024-02-02T22:28:37.510Z,11.30
2024-02-02T22:31:06.178Z,12.80
2024-02-02T22:33:34.834Z,9.23
2024-02-02T22:36:03.177Z,11.18
2024-02-02T22:38:31.509Z,11.77
2024-02-02T22:41:04.890Z,9.90
2024-02-02T22:43:39.580Z,10.13
2024-02-02T22:46:07.776Z,11.23
2024-02-02T22:48:35.984Z,11.85
2024-02-02T22:51:04.369Z,13.45
2024-02-02T22:53:32.604Z,13.60
2024-02-02T22:56:00.849Z,19.90
2024-02-02T22:58:29.076Z,21.48
2024-02-02T23:01:36.253Z,27.23
2024-02-02T23:04:35.226Z,22.48
2024-02-02T23:07:09.238Z,16.63
2024-02-02T23:09:37.724Z,11.65
2024-02-02T23:12:06.814Z,11.13
2024-02-02T23:14:35.008Z,10.48
2024-02-02T23:17:04.850Z,8.73
2024-02-02T23:19:35.303Z,7.65
2024-02-02T23:22:05.478Z,12.45
2024-02-02T23:24:33.669Z,11.43
2024-02-02T23:27:02.061Z,8.18
2024-02-02T23:29:30.265Z,9.53
2024-02-02T23:31:58.464Z,7.75
2024-02-02T23:34:28.150Z,10.68
2024-02-02T23:36:57.152Z,7.75
2024-02-02T23:39:25.430Z,9.68
2024-02-02T23:41:53.597Z,10.00
2024-02-02T23:44:21.753Z,6.47
2024-02-02T23:46:49.927Z,8.80
2024-02-02T23:49:18.923Z,9.95
2024-02-02T23:51:48.665Z,8.60
2024-02-02T23:54:16.960Z,9.15
2024-02-02T23:56:45.121Z,10.77
2024-02-02T23:59:13.504Z,8.43
